Startpagina
METAR-TAF:

METAR-TAF

Vliegvelden :

Germiston, Zuid-Afrika

breedte: 26-14-33S, lengte: 028-09-04E, hoogte: 1671 m

Actueel weer

Dit bericht is 2 uur en het 35 minuten geleden gemaakt, om 15:00 UTC
Wind 7 kt uit het noordnoordwesten
Temperatuur 14°C
Vochtigheid 23%
Druk 1025 hPa
Zicht 10 km of meer
geen wolken onder 1500 m en geen cumulonimbus

METAR: FAGM 251500Z 33007KT CAVOK 14/M07 Q1025

Tijdstip: 19:35 (17:35 UTC)


TAF: ontbreekt

Waarnemingen en weersverwachtingen van meer dan 4000 vliegvelden (METAR en TAF).

De beschikbare stations zijn de gele en rode punten op de kaart.

Ga met uw muis naar het station om de naam te zien.

Klik dan om waarnemingen en weersverwachtingen te zien.

kaart wijzigen: klik op de groene knoppen met een zwart kruis om in te zoomen, op de groene knop met een streepje om uit te zoomen of op de groene pijlen voor aangrenzende kaarten.


METAR-TAF: